Time;durP1;ratioP1;P1;durP2;ratioP2;P2;SDS_P1;SDS_P2;PMS_P1;PMS_P2;Temp;Humidity;BMP_temperature;BMP_pressure;BME280_temperature;BME280_humidity;BME280_pressure;Samples;Min_cycle;Max_cycle;Signal;HPM_P1;HPM_P2
2023/10/24 04:30:44;;;;;;;;;4.00;4.00;;;;;22.70;51.09;99994.16;5099641;27;45627;-75
2023/10/24 04:33:10;;;;;;;;;4.50;4.00;;;;;22.72;51.04;99984.75;5055690;28;45337;-75
2023/10/24 04:35:50;;;;;;;;;3.25;3.25;;;;;22.79;51.17;99993.19;5055260;28;45579;-75
2023/10/24 04:38:16;;;;;;;;;4.00;4.00;;;;;22.74;50.98;99977.28;5037428;28;46400;-75
2023/10/24 04:40:42;;;;;;;;;4.00;4.00;;;;;22.92;50.98;99966.22;5055981;28;45605;-75
2023/10/24 04:43:08;;;;;;;;;5.25;3.50;;;;;22.89;50.77;99978.34;5055411;28;45278;-75
2023/10/24 04:45:35;;;;;;;;;3.00;3.00;;;;;22.95;50.92;99990.50;5055299;28;45406;-75
2023/10/24 04:48:01;;;;;;;;;4.00;4.00;;;;;22.87;50.71;99993.22;5055215;28;46892;-76
2023/10/24 04:50:27;;;;;;;;;3.50;3.50;;;;;22.96;50.92;100001.28;5055097;28;45315;-75
2023/10/24 04:52:53;;;;;;;;;3.00;3.00;;;;;22.97;50.58;99983.81;5055512;28;45509;-74
2023/10/24 04:55:18;;;;;;;;;3.75;3.75;;;;;23.11;50.36;99971.38;5055442;28;45549;-76
2023/10/24 04:57:44;;;;;;;;;3.00;3.00;;;;;23.16;49.93;99981.78;5055227;28;45354;-76
2023/10/24 05:00:13;;;;;;;;;3.75;3.75;;;;;23.16;50.13;99992.72;5055203;28;48203;-77
2023/10/24 05:02:40;;;;;;;;;4.00;4.00;;;;;23.03;50.19;99987.78;5037006;28;45475;-77
2023/10/24 05:05:06;;;;;;;;;3.00;3.00;;;;;23.13;50.16;99991.22;5054867;28;45382;-75
2023/10/24 05:07:31;;;;;;;;;4.00;4.00;;;;;22.92;50.03;99975.28;5055108;28;45551;-75
2023/10/24 05:09:57;;;;;;;;;3.75;3.75;;;;;22.91;50.31;99992.69;5055343;28;45320;-75
2023/10/24 05:12:22;;;;;;;;;3.50;3.50;;;;;22.94;50.57;99978.72;5054674;28;45577;-75
2023/10/24 05:14:48;;;;;;;;;2.50;2.50;;;;;22.90;50.49;99988.25;5055158;28;45336;-71
2023/10/24 05:17:14;;;;;;;;;2.00;2.00;;;;;22.97;50.70;99974.75;5054654;28;45430;-74
2023/10/24 05:19:43;;;;;;;;;5.00;2.00;;;;;23.01;50.21;99977.00;5036419;28;45390;-74
2023/10/24 05:22:10;;;;;;;;;3.00;3.00;;;;;23.16;49.84;99985.38;5054924;28;45246;-73
2023/10/24 05:24:36;;;;;;;;;3.00;3.00;;;;;23.19;49.72;99985.06;5054811;28;46265;-74
2023/10/24 05:27:02;;;;;;;;;2.00;2.00;;;;;23.12;50.11;99985.91;5054674;28;46257;-73
2023/10/24 05:29:28;;;;;;;;;2.75;2.75;;;;;23.16;49.86;99985.38;5054759;28;45379;-74
2023/10/24 05:31:53;;;;;;;;;4.75;4.75;;;;;23.14;50.15;99975.66;5066269;28;45319;-75
2023/10/24 05:34:18;;;;;;;;;5.00;3.75;;;;;23.01;50.14;99965.22;5074814;28;45249;-74
2023/10/24 05:36:44;;;;;;;;;4.25;4.25;;;;;23.05;50.63;99971.22;5074603;28;47802;-74
2023/10/24 05:39:09;;;;;;;;;3.00;3.00;;;;;22.96;50.16;99962.16;5075016;28;45457;-74
2023/10/24 05:41:34;;;;;;;;;5.00;5.00;;;;;22.91;49.91;99959.03;5075022;28;45275;-74
2023/10/24 05:44:00;;;;;;;;;4.00;4.00;;;;;22.77;50.43;99957.84;5074620;28;45331;-75
2023/10/24 05:46:25;;;;;;;;;4.00;4.00;;;;;22.66;51.01;99966.31;5074797;28;45311;-74
2023/10/24 05:48:50;;;;;;;;;3.00;3.00;;;;;22.63;51.19;99956.56;5074770;28;53004;-74
2023/10/24 05:51:23;;;;;;;;;7.25;5.25;;;;;22.56;51.19;99966.44;5074826;28;45939;-76
2023/10/24 05:53:49;;;;;;;;;4.00;4.00;;;;;22.53;51.02;99985.91;5074930;28;45395;-74
2023/10/24 05:56:15;;;;;;;;;6.00;6.00;;;;;22.54;51.16;99984.03;5074499;28;46637;-74
2023/10/24 05:58:40;;;;;;;;;5.00;5.00;;;;;22.52;51.38;99989.66;5074738;28;45314;-74
2023/10/24 06:01:07;;;;;;;;;4.25;4.25;;;;;22.48;51.27;99977.34;5073825;28;45446;-73
2023/10/24 06:03:32;;;;;;;;;4.00;4.00;;;;;22.59;50.99;99979.78;5074079;28;45267;-75
2023/10/24 06:05:58;;;;;;;;;5.00;5.00;;;;;22.50;51.35;99988.97;5074366;28;46217;-73
2023/10/24 06:08:23;;;;;;;;;4.00;4.00;;;;;22.41;51.16;99983.63;5074822;28;45279;-77
2023/10/24 06:10:58;;;;;;;;;6.00;5.75;;;;;22.19;51.44;99985.09;5074285;28;45812;-78
2023/10/24 06:13:24;;;;;;;;;6.50;4.25;;;;;22.37;51.54;100001.38;5074402;28;45773;-74
2023/10/24 06:15:50;;;;;;;;;8.25;4.25;;;;;22.27;51.64;99994.19;5073032;28;46340;-78
2023/10/24 06:18:15;;;;;;;;;3.25;3.25;;;;;22.66;50.93;99999.09;5056066;28;45343;-81
2023/10/24 06:20:41;;;;;;;;;5.00;5.00;;;;;22.72;50.69;100005.75;5056645;28;45312;-78
2023/10/24 06:23:07;;;;;;;;;5.50;5.00;;;;;22.66;50.35;100007.28;5074726;28;45504;-76
2023/10/24 06:25:42;;;;;;;;;5.75;5.75;;;;;22.72;50.31;100001.16;5058051;28;46375;-77
2023/10/24 06:28:08;;;;;;;;;5.25;5.25;;;;;22.67;49.90;100005.41;5077883;28;45492;-77
2023/10/24 06:30:35;;;;;;;;;8.75;5.00;;;;;22.50;50.45;100002.63;5077612;28;45409;-77
2023/10/24 06:33:01;;;;;;;;;7.00;5.50;;;;;22.35;50.60;100009.75;5059150;28;47448;-77
2023/10/24 06:35:27;;;;;;;;;5.25;5.25;;;;;22.40;50.55;100015.56;5077667;28;45383;-77
2023/10/24 06:37:52;;;;;;;;;6.25;6.25;;;;;22.52;50.27;100008.78;5078223;28;45326;-79
2023/10/24 06:40:18;;;;;;;;;5.25;5.25;;;;;22.36;50.29;100022.38;5060556;28;45295;-77
2023/10/24 06:42:44;;;;;;;;;3.50;3.50;;;;;22.59;50.20;100020.75;5079382;28;45458;-78
2023/10/24 06:45:11;;;;;;;;;7.50;6.00;;;;;22.49;49.90;100025.50;5078808;28;45341;-79
2023/10/24 06:47:37;;;;;;;;;5.00;5.00;;;;;22.54;50.19;100031.31;5079403;28;45453;-80
2023/10/24 06:50:03;;;;;;;;;4.75;4.75;;;;;22.40;50.44;100036.53;5079111;28;45503;-77
2023/10/24 06:52:28;;;;;;;;;5.25;5.25;;;;;22.17;49.95;99987.97;5080048;28;45580;-79
2023/10/24 06:54:53;;;;;;;;;3.50;3.50;;;;;22.50;49.63;100023.63;5080092;28;46759;-80
2023/10/24 06:57:19;;;;;;;;;5.75;5.75;;;;;22.53;49.63;100031.50;5078805;28;45346;-79
2023/10/24 06:59:45;;;;;;;;;7.00;5.25;;;;;22.58;49.77;100042.78;5077894;28;45169;-78
2023/10/24 07:02:10;;;;;;;;;5.00;5.00;;;;;22.30;49.68;100038.53;5076648;28;45503;-77
2023/10/24 07:04:35;;;;;;;;;4.00;4.00;;;;;22.47;49.57;100037.59;5058311;28;47034;-77
2023/10/24 07:07:01;;;;;;;;;6.50;5.25;;;;;22.25;49.94;100048.09;5072747;27;45504;-72
2023/10/24 07:09:26;;;;;;;;;4.75;4.75;;;;;22.22;49.25;100053.84;5078816;27;45573;-74
2023/10/24 07:11:51;;;;;;;;;5.00;5.00;;;;;22.12;49.77;100061.31;5086048;27;45383;-75
2023/10/24 07:14:17;;;;;;;;;7.00;7.00;;;;;22.10;49.88;100065.22;5085560;27;45246;-74
2023/10/24 07:16:42;;;;;;;;;5.00;5.00;;;;;22.17;50.05;100069.88;5077139;28;45246;-76
2023/10/24 07:19:07;;;;;;;;;4.00;4.00;;;;;22.12;49.41;100065.91;5076808;28;45391;-74
2023/10/24 07:21:33;;;;;;;;;4.50;4.00;;;;;22.05;49.72;100071.16;5077455;28;45746;-75
2023/10/24 07:23:58;;;;;;;;;4.00;4.00;;;;;22.06;49.74;100078.34;5085738;27;46515;-76
2023/10/24 07:26:24;;;;;;;;;5.00;5.00;;;;;21.88;49.87;100086.53;5077184;28;45442;-75
2023/10/24 07:28:49;;;;;;;;;5.00;5.00;;;;;21.96;49.85;100088.47;5077045;28;45394;-74
2023/10/24 07:31:15;;;;;;;;;4.00;4.00;;;;;21.96;49.98;100093.06;5076663;28;45392;-75
2023/10/24 07:33:41;;;;;;;;;5.50;4.25;;;;;22.02;49.36;100079.69;5076276;28;46502;-76
2023/10/24 07:36:07;;;;;;;;;3.00;3.00;;;;;21.89;49.36;100076.47;5075783;28;45300;-73
2023/10/24 07:38:32;;;;;;;;;5.00;5.00;;;;;21.83;49.42;100085.31;5081670;27;45567;-75
2023/10/24 07:40:58;;;;;;;;;4.25;4.25;;;;;22.05;49.28;100081.22;5076666;28;45500;-76
2023/10/24 07:43:23;;;;;;;;;6.00;3.25;;;;;22.01;49.37;100067.06;5076154;28;46334;-76
2023/10/24 07:45:55;;;;;;;;;3.75;3.75;;;;;22.05;49.04;100078.47;5076684;28;45370;-76
2023/10/24 07:48:21;;;;;;;;;3.00;2.50;;;;;21.94;49.29;100074.13;5076322;28;45435;-74
2023/10/24 07:50:53;;;;;;;;;3.00;3.00;;;;;21.89;48.92;100081.94;5075770;28;45364;-75
2023/10/24 07:53:23;;;;;;;;;4.00;4.00;;;;;21.77;49.01;100083.22;5075477;27;46226;-75
2023/10/24 07:55:48;;;;;;;;;3.00;1.75;;;;;21.72;49.13;100080.94;5082326;27;45428;-75
2023/10/24 07:58:16;;;;;;;;;2.75;1.50;;;;;21.26;49.53;100068.44;5089103;27;45436;-75
2023/10/24 08:00:42;;;;;;;;;5.25;2.25;;;;;21.64;48.97;100069.09;5087432;27;45546;-76
2023/10/24 08:03:08;;;;;;;;;6.00;3.00;;;;;21.79;49.07;100084.75;5077239;27;47331;-75
2023/10/24 08:05:33;;;;;;;;;4.50;3.00;;;;;21.92;48.78;100075.31;5076264;28;45208;-74
2023/10/24 08:07:58;;;;;;;;;2.00;2.00;;;;;22.04;48.12;100090.41;5080596;28;45218;-74
2023/10/24 08:10:24;;;;;;;;;4.00;3.00;;;;;21.70;48.65;100090.28;5084003;27;45361;-77
2023/10/24 08:12:49;;;;;;;;;2.75;2.50;;;;;21.74;48.71;100086.25;5076023;28;45494;-74
2023/10/24 08:15:14;;;;;;;;;4.50;2.00;;;;;21.93;48.21;100096.13;5076109;28;45432;-73
2023/10/24 08:17:39;;;;;;;;;5.25;2.50;;;;;21.95;48.54;100084.00;5074931;28;50499;-74
2023/10/24 08:20:05;;;;;;;;;2.75;2.75;;;;;21.94;48.20;100093.25;5074435;28;52162;-74
2023/10/24 08:22:31;;;;;;;;;3.00;3.00;;;;;21.95;47.83;100094.09;5075812;28;45429;-75
2023/10/24 08:24:56;;;;;;;;;3.50;2.50;;;;;21.81;47.86;100093.63;5080161;27;45334;-74
2023/10/24 08:27:22;;;;;;;;;2.00;2.00;;;;;21.97;48.13;100100.22;5078117;27;45633;-75
2023/10/24 08:29:47;;;;;;;;;3.50;3.50;;;;;22.00;47.88;100111.75;5076085;28;45404;-75
2023/10/24 08:32:12;;;;;;;;;2.00;2.00;;;;;22.07;47.71;100106.50;5075336;28;48141;-75
2023/10/24 08:34:38;;;;;;;;;3.25;2.00;;;;;21.90;48.01;100094.56;5074833;28;49814;-74
2023/10/24 08:37:04;;;;;;;;;2.00;2.00;;;;;21.82;47.51;100109.00;5075618;28;45401;-74
2023/10/24 08:39:29;;;;;;;;;2.00;2.00;;;;;22.16;47.99;100100.94;5075536;28;45559;-73
2023/10/24 08:41:57;;;;;;;;;3.50;2.25;;;;;22.24;47.30;100114.63;5075167;28;55008;-76
2023/10/24 08:44:24;;;;;;;;;2.25;2.25;;;;;22.05;46.76;100101.19;5075713;28;45299;-74
2023/10/24 08:46:50;;;;;;;;;2.25;2.00;;;;;22.31;47.11;100112.13;5075035;28;45309;-74
2023/10/24 08:49:17;;;;;;;;;1.50;1.50;;;;;22.23;47.13;100109.34;5074901;28;45474;-75
2023/10/24 08:51:43;;;;;;;;;3.50;3.50;;;;;22.13;47.62;100098.50;5075151;28;46197;-74
2023/10/24 08:54:09;;;;;;;;;2.75;2.75;;;;;22.30;47.32;100110.41;5075627;28;45357;-74
2023/10/24 08:56:36;;;;;;;;;5.25;2.00;;;;;22.13;46.82;100119.50;5080694;27;45339;-73
2023/10/24 08:59:04;;;;;;;;;3.00;2.25;;;;;22.12;47.26;100115.91;5074612;28;45383;-74
2023/10/24 09:01:30;;;;;;;;;3.50;1.75;;;;;22.14;46.83;100107.56;5075096;28;45516;-74
2023/10/24 09:03:57;;;;;;;;;1.00;1.00;;;;;22.41;45.94;100126.53;5074125;28;45462;-75
2023/10/24 09:06:23;;;;;;;;;2.00;2.00;;;;;22.10;46.16;100126.16;5075217;28;45329;-75
2023/10/24 09:08:48;;;;;;;;;2.00;2.00;;;;;22.18;46.48;100131.66;5081451;27;45514;-75
2023/10/24 09:11:15;;;;;;;;;3.75;2.00;;;;;22.43;46.06;100124.50;5076800;27;45476;-74
2023/10/24 09:13:40;;;;;;;;;3.00;1.00;;;;;22.41;45.68;100121.06;5075798;28;45216;-75
2023/10/24 09:16:10;;;;;;;;;2.00;1.00;;;;;22.67;45.97;100121.03;5075203;28;45207;-75
2023/10/24 09:18:37;;;;;;;;;1.00;1.00;;;;;22.64;45.49;100133.13;5074662;28;45567;-75
2023/10/24 09:21:05;;;;;;;;;1.00;1.00;;;;;22.35;45.06;100129.06;5074924;28;45374;-75
2023/10/24 09:23:32;;;;;;;;;1.00;1.00;;;;;22.59;45.49;100137.38;5074802;28;45409;-75
2023/10/24 09:26:01;;;;;;;;;2.75;1.00;;;;;22.48;44.84;100133.06;5082042;27;45351;-75
2023/10/24 09:28:29;;;;;;;;;2.75;2.25;;;;;22.64;45.28;100135.88;5074886;28;45653;-75
2023/10/24 09:30:57;;;;;;;;;1.75;1.50;;;;;22.49;44.59;100142.97;5074558;28;46188;-75
2023/10/24 09:33:24;;;;;;;;;2.00;2.00;;;;;22.71;44.60;100124.31;5074237;28;45348;-74
2023/10/24 09:35:50;;;;;;;;;1.50;1.50;;;;;22.73;44.75;100141.38;5075011;28;45477;-75
2023/10/24 09:38:19;;;;;;;;;2.25;1.25;;;;;22.75;44.17;100134.78;5074464;28;45381;-76
2023/10/24 09:40:45;;;;;;;;;1.50;1.50;;;;;22.88;44.52;100131.59;5074677;28;46319;-75
2023/10/24 09:43:22;;;;;;;;;1.00;1.00;;;;;22.74;44.33;100132.16;5074440;28;45505;-74
2023/10/24 09:45:50;;;;;;;;;3.00;1.75;;;;;22.81;44.17;100133.25;5074669;28;45290;-74
2023/10/24 09:48:16;;;;;;;;;2.00;1.00;;;;;22.75;44.13;100133.91;5073813;28;45365;-75
2023/10/24 09:50:42;;;;;;;;;2.00;2.00;;;;;22.90;43.47;100118.59;5074554;28;45671;-74
2023/10/24 09:53:09;;;;;;;;;1.50;1.50;;;;;22.90;44.15;100129.53;5074299;28;45519;-74
2023/10/24 09:55:35;;;;;;;;;2.00;1.00;;;;;22.72;43.03;100126.00;5075286;27;45372;-74
2023/10/24 09:58:01;;;;;;;;;1.50;1.50;;;;;22.99;43.61;100123.09;5074236;28;45330;-76
2023/10/24 10:00:27;;;;;;;;;2.00;2.00;;;;;23.15;43.38;100116.81;5056079;28;47565;-74
2023/10/24 10:02:58;;;;;;;;;1.00;1.00;;;;;22.91;43.19;100131.25;5074307;28;45308;-75
2023/10/24 10:05:28;;;;;;;;;2.50;0.50;;;;;22.95;43.42;100135.38;5074601;28;45409;-74
2023/10/24 10:07:54;;;;;;;;;1.00;1.00;;;;;22.98;42.95;100124.97;5074062;28;45391;-74
2023/10/24 10:10:20;;;;;;;;;0.50;0.50;;;;;23.22;43.33;100124.19;5082523;27;46130;-74
2023/10/24 10:12:47;;;;;;;;;2.00;2.00;;;;;22.94;43.29;100114.53;5074280;28;45537;-74
2023/10/24 10:15:18;;;;;;;;;2.00;0.50;;;;;22.93;43.58;100132.81;5074734;28;45561;-75
2023/10/24 10:17:49;;;;;;;;;2.50;2.50;;;;;23.23;43.63;100130.50;5074113;28;45383;-75
2023/10/24 10:20:37;;;;;;;;;3.00;1.00;;;;;23.09;43.61;100133.88;5073919;28;45414;-75
2023/10/24 10:23:30;;;;;;;;;1.00;1.00;;;;;23.36;42.47;100131.75;5074136;28;45357;-75
2023/10/24 10:26:08;;;;;;;;;1.25;1.25;;;;;23.41;41.83;100123.03;5080924;27;45370;-77
2023/10/24 10:29:00;;;;;;;;;2.00;1.00;;;;;23.52;42.04;100141.91;5074176;28;45391;-75
2023/10/24 10:31:37;;;;;;;;;2.50;1.00;;;;;23.45;41.92;100132.63;5074078;28;45303;-76
2023/10/24 10:34:03;;;;;;;;;1.00;0.25;;;;;23.48;41.75;100132.28;5073556;28;45422;-74
2023/10/24 10:36:28;;;;;;;;;2.00;2.00;;;;;23.42;41.88;100126.63;5074155;28;45330;-75
2023/10/24 10:39:00;;;;;;;;;3.00;1.25;;;;;23.56;41.21;100135.06;5073747;28;52541;-74
2023/10/24 10:41:26;;;;;;;;;0.50;0.50;;;;;23.80;41.42;100130.66;5055748;28;46203;-75
2023/10/24 10:44:00;;;;;;;;;3.00;1.50;;;;;23.71;41.51;100127.94;5078468;27;45449;-78
2023/10/24 10:46:26;;;;;;;;;1.00;1.00;;;;;23.92;41.43;100130.13;5090667;27;45457;-76
2023/10/24 10:49:12;;;;;;;;;1.00;1.00;;;;;24.09;41.41;100131.00;5073702;28;45370;-74
2023/10/24 10:51:37;;;;;;;;;1.75;1.75;;;;;23.90;40.11;100128.63;5074739;28;46238;-76
2023/10/24 10:54:42;;;;;;;;;1.00;1.00;;;;;24.53;39.16;100131.47;5054410;28;45565;-76
2023/10/24 10:57:10;;;;;;;;;3.00;1.00;;;;;25.45;37.59;100116.19;5073131;28;45352;-72
2023/10/24 10:59:45;;;;;;;;;3.00;2.00;;;;;26.63;35.56;100110.03;5072996;28;45481;-73
2023/10/24 11:02:38;;;;;;;;;3.00;3.00;;;;;27.69;33.85;100106.78;5073735;28;45496;-72
2023/10/24 11:05:43;;;;;;;;;1.00;1.00;;;;;28.53;32.99;100118.75;5073470;28;45350;-74
2023/10/24 11:08:17;;;;;;;;;4.50;3.00;;;;;28.93;32.73;100107.97;5069759;28;45532;-72
2023/10/24 11:10:50;;;;;;;;;0.25;0.00;;;;;28.61;32.14;100115.84;5074752;28;45394;-74
2023/10/24 11:13:34;;;;;;;;;1.00;1.00;;;;;28.85;32.19;100120.03;5077334;28;45291;-73
2023/10/24 11:16:05;;;;;;;;;0.50;0.50;;;;;29.67;30.48;100122.75;5058975;28;45498;-71
2023/10/24 11:18:33;;;;;;;;;3.00;3.00;;;;;31.26;29.00;100119.91;5077044;28;45555;-73
2023/10/24 11:21:00;;;;;;;;;3.00;3.00;;;;;32.51;27.89;100116.28;5076978;28;45526;-71
2023/10/24 11:23:26;;;;;;;;;2.50;0.50;;;;;33.42;25.57;100108.91;5077158;28;47089;-74
2023/10/24 11:25:54;;;;;;;;;3.50;2.00;;;;;34.19;24.64;100117.41;5076278;28;45532;-73
2023/10/24 11:28:19;;;;;;;;;0.00;0.00;;;;;34.55;24.78;100114.41;5057986;28;45394;-74
2023/10/24 11:30:45;;;;;;;;;3.00;1.00;;;;;34.34;24.65;100109.44;5075999;28;45505;-74
2023/10/24 11:33:10;;;;;;;;;0.00;0.00;;;;;33.60;25.63;100116.31;5076773;28;45358;-72
2023/10/24 11:35:35;;;;;;;;;1.00;1.00;;;;;33.17;25.41;100123.94;5076673;28;45315;-73
2023/10/24 11:38:01;;;;;;;;;3.67;1.00;;;;;32.58;25.88;100123.47;5076982;28;45327;-72
2023/10/24 11:40:27;;;;;;;;;1.25;1.25;;;;;32.54;25.54;100113.94;5076669;28;45629;-73
2023/10/24 11:43:02;;;;;;;;;4.75;3.00;;;;;30.83;27.54;100104.69;5072155;28;45648;-73
2023/10/24 11:45:28;;;;;;;;;1.25;1.25;;;;;30.63;28.04;100101.09;5076785;28;45373;-73
2023/10/24 11:47:55;;;;;;;;;1.50;0.75;;;;;30.78;28.13;100109.19;5055063;28;45295;-73
2023/10/24 11:50:44;;;;;;;;;0.75;0.75;;;;;30.23;28.45;100105.81;5075807;28;45216;-74
2023/10/24 11:53:18;;;;;;;;;1.75;0.25;;;;;29.22;30.16;100104.09;5076472;28;46192;-73
2023/10/24 11:55:44;;;;;;;;;0.00;0.00;;;;;28.09;30.51;100099.72;5075335;28;45452;-73
2023/10/24 11:58:11;;;;;;;;;0.00;0.00;;;;;28.55;31.10;100096.50;5076576;28;45411;-73
2023/10/24 12:00:40;;;;;;;;;0.00;0.00;;;;;28.71;30.43;100098.94;5076729;28;45540;-73
2023/10/24 12:03:05;;;;;;;;;0.00;0.00;;;;;29.04;30.22;100098.28;5076281;28;46119;-73
2023/10/24 12:05:32;;;;;;;;;4.25;2.00;;;;;29.40;30.17;100093.34;5076606;28;45187;-72
2023/10/24 12:07:59;;;;;;;;;2.75;1.25;;;;;29.75;30.15;100096.00;5076630;28;45318;-72
2023/10/24 12:10:28;;;;;;;;;1.00;1.00;;;;;29.82;29.24;100091.31;5054773;28;46126;-73
2023/10/24 12:12:58;;;;;;;;;0.75;0.75;;;;;29.91;28.93;100092.81;5069727;27;46514;-75
2023/10/24 12:15:25;;;;;;;;;4.50;1.00;;;;;29.47;29.32;100090.59;5096932;27;45401;-74
2023/10/24 12:17:51;;;;;;;;;0.00;0.00;;;;;29.23;29.69;100083.72;5096721;27;45524;-73
2023/10/24 12:20:16;;;;;;;;;1.00;1.00;;;;;28.34;30.28;100102.06;5096543;27;45361;-73
2023/10/24 12:22:46;;;;;;;;;1.50;1.00;;;;;28.05;31.26;100092.91;5094954;27;46000;-72
2023/10/24 12:25:12;;;;;;;;;1.75;1.75;;;;;28.25;30.92;100090.34;5085796;27;46247;-74
2023/10/24 12:27:38;;;;;;;;;0.25;0.25;;;;;28.88;30.69;100083.78;5087800;27;45472;-74
2023/10/24 12:30:03;;;;;;;;;1.00;1.00;;;;;29.53;29.19;100092.53;5096093;27;46274;-69
2023/10/24 12:32:29;;;;;;;;;2.00;1.00;;;;;29.64;29.09;100076.19;5086719;27;45222;-71
2023/10/24 12:34:54;;;;;;;;;1.75;1.75;;;;;30.21;29.23;100065.59;5096723;27;45399;-69
2023/10/24 12:37:19;;;;;;;;;1.50;1.50;;;;;30.08;29.23;100070.09;5096144;27;48564;-73
2023/10/24 12:39:46;;;;;;;;;1.00;1.00;;;;;29.57;29.05;100060.69;5095384;27;45523;-72
2023/10/24 12:42:11;;;;;;;;;0.00;0.00;;;;;29.10;29.68;100070.69;5091839;27;45695;-71
2023/10/24 12:44:37;;;;;;;;;0.00;0.00;;;;;28.57;30.19;100061.31;5088556;27;45376;-72
2023/10/24 12:47:02;;;;;;;;;2.00;1.00;;;;;27.93;31.19;100071.59;5077913;27;45479;-71
2023/10/24 12:49:28;;;;;;;;;2.00;0.25;;;;;26.71;32.49;100048.63;5095732;27;46140;-72
2023/10/24 12:51:53;;;;;;;;;0.00;0.00;;;;;26.53;33.01;100057.25;5095925;27;45392;-71
2023/10/24 12:54:18;;;;;;;;;0.50;0.50;;;;;26.46;33.86;100061.78;5096115;27;45326;-71
2023/10/24 12:56:43;;;;;;;;;1.00;1.00;;;;;26.27;33.76;100056.88;5095769;27;45454;-72
2023/10/24 12:59:09;;;;;;;;;1.00;1.00;;;;;25.91;34.52;100056.66;5096046;27;46286;-72
2023/10/24 13:01:34;;;;;;;;;1.75;0.00;;;;;25.82;34.47;100047.66;5095743;27;45400;-71
2023/10/24 13:04:00;;;;;;;;;1.00;1.00;;;;;25.96;34.85;100037.72;5095694;27;45346;-70
2023/10/24 13:06:25;;;;;;;;;1.25;1.25;;;;;25.91;35.03;100042.94;5095702;27;45391;-71
2023/10/24 13:08:51;;;;;;;;;0.50;0.50;;;;;26.12;35.72;100037.56;5095752;27;45391;-71
2023/10/24 13:11:16;;;;;;;;;1.00;1.00;;;;;26.44;35.33;100032.81;5095498;27;45987;-71
2023/10/24 13:13:41;;;;;;;;;2.25;1.50;;;;;26.47;34.78;100019.50;5095790;27;45237;-72
2023/10/24 13:16:07;;;;;;;;;1.75;1.75;;;;;26.26;34.93;100016.69;5095645;27;45240;-70
2023/10/24 13:18:32;;;;;;;;;2.00;2.00;;;;;26.05;34.91;100008.28;5095198;27;45333;-72
2023/10/24 13:20:57;;;;;;;;;2.75;0.00;;;;;26.18;34.42;100005.75;5095344;27;45598;-71
2023/10/24 13:23:23;;;;;;;;;0.75;0.75;;;;;26.02;34.49;100001.28;5095532;27;45340;-72
2023/10/24 13:25:48;;;;;;;;;2.25;1.25;;;;;26.22;33.88;99994.19;5095486;27;45282;-71
2023/10/24 13:28:13;;;;;;;;;1.25;1.25;;;;;26.47;33.96;99997.50;5094754;27;45218;-71
2023/10/24 13:30:38;;;;;;;;;0.50;0.50;;;;;26.60;33.82;99991.34;5095182;27;45530;-72
2023/10/24 13:33:04;;;;;;;;;0.00;0.00;;;;;26.70;32.97;99987.28;5094464;27;46516;-72
2023/10/24 13:35:29;;;;;;;;;2.50;1.00;;;;;27.26;33.00;99994.88;5095243;27;45318;-71
2023/10/24 13:37:54;;;;;;;;;0.25;0.25;;;;;27.74;31.70;99996.84;5095379;27;45640;-71
2023/10/24 13:40:20;;;;;;;;;2.25;0.75;;;;;27.72;31.88;99990.72;5094566;27;52580;-71
2023/10/24 13:42:46;;;;;;;;;1.00;1.00;;;;;27.23;31.46;99998.88;5094466;27;45774;-70
2023/10/24 13:45:12;;;;;;;;;0.00;0.00;;;;;27.37;32.06;99991.63;5076012;27;46001;-70
2023/10/24 13:47:38;;;;;;;;;1.25;1.25;;;;;27.57;32.26;99994.56;5095434;27;45575;-68
2023/10/24 13:50:04;;;;;;;;;1.00;1.00;;;;;28.28;31.30;99990.69;5076564;27;46541;-75
2023/10/24 13:52:32;;;;;;;;;1.25;1.25;;;;;29.10;29.79;99987.03;5095143;27;45554;-75
2023/10/24 13:54:58;;;;;;;;;0.75;0.50;;;;;29.77;28.68;99988.88;5094846;27;45192;-72
2023/10/24 13:57:23;;;;;;;;;1.75;0.75;;;;;29.50;28.59;99994.38;5094974;27;45367;-72
2023/10/24 13:59:52;;;;;;;;;0.50;0.50;;;;;29.22;28.83;99988.13;5095309;27;45945;-69
2023/10/24 14:02:18;;;;;;;;;0.00;0.00;;;;;29.11;29.30;99991.50;5098390;27;45336;-70
2023/10/24 14:04:44;;;;;;;;;0.00;0.00;;;;;28.95;29.72;99978.94;5096048;27;45351;-71
2023/10/24 14:07:09;;;;;;;;;0.50;0.50;;;;;28.33;30.39;99966.13;5094447;27;54932;-73
2023/10/24 14:09:35;;;;;;;;;1.00;1.00;;;;;27.85;30.97;99982.53;5094669;27;46044;-72
2023/10/24 14:12:00;;;;;;;;;0.25;0.00;;;;;27.56;31.75;99990.16;5095070;27;45277;-72
2023/10/24 14:14:26;;;;;;;;;0.50;0.25;;;;;28.14;31.46;99984.22;5094907;27;45213;-74
2023/10/24 14:16:53;;;;;;;;;2.25;0.50;;;;;28.18;31.31;99992.97;5103718;27;45222;-71
2023/10/24 14:19:18;;;;;;;;;2.00;1.25;;;;;27.98;31.71;99980.94;5094370;27;46284;-72
2023/10/24 14:21:44;;;;;;;;;1.25;1.00;;;;;27.74;32.17;99985.81;5094832;27;45214;-72
2023/10/24 14:24:09;;;;;;;;;1.25;1.25;;;;;27.36;32.55;99990.78;5094750;27;45443;-72
2023/10/24 14:26:35;;;;;;;;;0.75;0.75;;;;;27.13;33.16;99981.88;5094564;27;45901;-72
2023/10/24 14:29:00;;;;;;;;;2.00;2.00;;;;;27.08;33.71;99987.09;5094335;27;45998;-71
2023/10/24 14:31:25;;;;;;;;;0.50;0.50;;;;;26.97;33.99;99993.94;5094605;27;45408;-72
2023/10/24 14:33:51;;;;;;;;;2.00;1.00;;;;;26.72;34.50;99989.78;5093910;27;45352;-71
2023/10/24 14:36:16;;;;;;;;;1.25;1.25;;;;;27.19;33.66;99994.84;5094554;27;45427;-72
2023/10/24 14:38:42;;;;;;;;;2.25;1.50;;;;;27.60;33.21;99989.53;5094506;27;46043;-71
2023/10/24 14:41:07;;;;;;;;;0.75;0.50;;;;;27.94;32.87;99996.16;5094126;27;45872;-72
2023/10/24 14:43:33;;;;;;;;;1.00;1.00;;;;;27.92;33.13;99990.00;5082859;27;45456;-71
2023/10/24 14:45:59;;;;;;;;;1.00;1.00;;;;;27.42;33.11;99994.63;5095214;27;45428;-73
2023/10/24 14:48:24;;;;;;;;;0.00;0.00;;;;;27.40;33.44;99985.69;5097750;27;46131;-72
2023/10/24 14:50:50;;;;;;;;;1.00;0.00;;;;;27.47;33.19;99973.72;5098007;27;45311;-72
2023/10/24 14:53:16;;;;;;;;;1.00;1.00;;;;;27.42;33.29;99978.09;5098088;27;45415;-72
2023/10/24 14:55:41;;;;;;;;;1.00;1.00;;;;;27.30;33.21;99980.56;5098133;27;45606;-72
2023/10/24 14:58:06;;;;;;;;;2.00;1.00;;;;;27.28;33.41;99981.78;5097451;27;45669;-72
2023/10/24 15:00:32;;;;;;;;;1.00;1.00;;;;;27.25;33.16;99972.03;5097567;27;45391;-72
2023/10/24 15:02:57;;;;;;;;;1.00;1.00;;;;;27.37;32.89;99978.72;5079287;27;45406;-73
2023/10/24 15:05:22;;;;;;;;;0.00;0.00;;;;;27.11;32.93;99968.28;5097735;27;45491;-71
2023/10/24 15:07:48;;;;;;;;;0.00;0.00;;;;;27.16;32.17;99970.44;5097446;27;52887;-72
2023/10/24 15:10:13;;;;;;;;;0.25;0.25;;;;;26.58;32.50;99963.19;5096939;27;47505;-73
2023/10/24 15:12:38;;;;;;;;;1.00;1.00;;;;;26.54;33.40;99959.13;5097153;27;45767;-72
2023/10/24 15:15:05;;;;;;;;;0.00;0.00;;;;;26.53;33.31;99952.78;5097606;27;45400;-72
2023/10/24 15:17:30;;;;;;;;;0.00;0.00;;;;;26.49;33.25;99964.34;5078794;27;45460;-71
2023/10/24 15:19:56;;;;;;;;;1.00;1.00;;;;;26.77;33.42;99964.47;5097295;27;47364;-72
2023/10/24 15:22:21;;;;;;;;;1.00;1.00;;;;;26.62;33.22;99965.38;5097764;27;45417;-71
2023/10/24 15:24:47;;;;;;;;;2.00;0.00;;;;;26.58;33.91;99964.03;5097460;27;45305;-73
2023/10/24 15:27:13;;;;;;;;;2.25;1.00;;;;;26.38;33.71;99958.28;5096823;27;45985;-70
2023/10/24 15:29:38;;;;;;;;;0.50;0.50;;;;;26.29;33.73;99951.19;5097109;27;45366;-72
2023/10/24 15:32:07;;;;;;;;;1.50;0.50;;;;;26.34;33.83;99945.97;5096504;27;45455;-72
2023/10/24 15:34:32;;;;;;;;;1.50;0.00;;;;;26.58;33.54;99944.81;5097197;27;45499;-74
2023/10/24 15:36:59;;;;;;;;;0.50;0.50;;;;;26.48;34.11;99951.63;5096836;27;45460;-70
2023/10/24 15:39:24;;;;;;;;;1.00;1.00;;;;;26.51;34.11;99940.28;5096997;27;45321;-71
2023/10/24 15:41:50;;;;;;;;;0.25;0.25;;;;;26.53;33.87;99944.53;5095924;27;45422;-71
2023/10/24 15:44:16;;;;;;;;;1.50;0.50;;;;;26.30;34.08;99946.53;5085315;27;46162;-71
2023/10/24 15:46:42;;;;;;;;;0.50;0.50;;;;;26.23;34.17;99932.69;5097252;27;45916;-71
2023/10/24 15:49:07;;;;;;;;;1.00;1.00;;;;;26.27;34.77;99935.94;5096532;27;45421;-71
2023/10/24 15:51:34;;;;;;;;;1.00;0.50;;;;;26.34;34.95;99945.13;5097084;27;45367;-72
2023/10/24 15:54:00;;;;;;;;;0.50;0.50;;;;;26.12;35.20;99948.78;5096461;27;45485;-71
2023/10/24 15:56:25;;;;;;;;;1.00;1.00;;;;;26.04;34.60;99919.53;5095817;27;45377;-72
2023/10/24 15:58:50;;;;;;;;;1.75;1.00;;;;;25.98;35.16;99926.63;5096083;27;45348;-73